Terminal Aerodrome Forecast
Issued by NWS

Home | Current Version | Previous Version | Graphics & Text | Print | Product List | Glossary On
Versions: 1 2 3 4 5 6 7 8 9 10 11 12 13 14 15 16 17 18 19 20 21 22 23
822
FTUS43 KICT 151132
TAFCNU
TAF
KCNU 151132Z 1512/1612 15004KT 5SM BR SCT003 OVC010
      TEMPO 1512/1514 1SM BR BKN003
     FM151400 16004KT 3SM BR OVC009
     FM151600 15004KT P6SM BKN015
     FM151700 15007KT P6SM SCT060
     FM160300 14005KT P6SM VCTS SCT080CB=

USA.gov is the U.S. government's official web portal to all federal, state and local government web resources and services.